Historyczne dane pomiarowe

Dodano dane terminowe – wersja testowa.

Dane z okresu 1951-2019

Wersja bazy: 1.34 [2019-03-16, lista zmian], aktualizacja planowana na 2019-04-15

Dane meteo z obszaru Polski uzyskane na podstawie danych udostępnionych przez Instytut Meteorologii i Gospodarki Wodnej – Państwowy Instytut Badawczy.

 

Wybierz Datę:    

       

TemperaturaWilgotnośćWiatrCiśnienieOpadyŚniegCzas trwania zjawisk
 Stacja t tx tn tng RH VA  wxwx mslp ppp RRR   cm mm wxwxwxwxwxwxwx
2015-05-15 10.5 17.0 2.4- 72.3- 1.3 1.0---- 0.0------------
2015-05-16 12.5 20.5 2.3- 66.5- 1.7 0.7---- 0.2------------
2015-05-17 12.8 17.0 9.8- 66.5- 6.7 1.3---- 0.0------------
2015-05-18 12.1 19.7 2.3- 59.3- 0.0 0.0---- 0.0------------
2015-05-19 17.9 26.5 5.0- 54.0- 3.0 0.7---- 2.6------------
2015-05-20 18.8 25.3 11.8- 77.0- 7.0 1.3---- 8.9------------
2015-05-21 14.5 23.2 10.3- 95.0- 8.0 0.7---- 14.8------------
2015-05-22 11.9 15.5 8.3- 83.0- 8.0 1.7---- 0.1------------
2015-05-23 11.5 13.6 8.8- 88.0- 8.0 0.7---- 3.1------------
2015-05-24 12.1 14.3 9.1- 88.8- 8.0 0.7---- 0.0------------
2015-05-25 14.1 16.9 10.8- 89.8- 7.3 0.0---- 0.3------------
2015-05-26 15.1 17.5 12.3- 91.3- 8.0 0.0---- 12.9------------
2015-05-27 9.8 15.5 6.0- 89.3- 7.7 1.3---- 9.6------------
2015-05-28 10.5 14.7 5.8- 77.0- 6.3 0.7---- 0.0------------
2015-05-29 12.8 21.0 2.7- 73.0- 0.0 0.0---- 0.0------------
2015-05-30 16.3 25.0 7.0- 70.3- 5.7 0.3---- 2.5------------
2015-05-31 14.8 20.3 8.7- 66.5- 1.7 0.7---- 0.1------------
2015-06-01 18.0 26.5 6.8- 66.5- 1.3 0.3---- 0.0------------
2015-06-02 21.0 28.3 12.5- 67.3- 0.0 0.3---- 0.0------------
2015-06-03 22.2 29.4 12.8- 56.5- 0.3 0.7---- 0.0------------
2015-06-04 19.1 25.4 15.0- 60.0- 3.3 0.7---- 0.0------------
2015-06-05 16.3 24.0 4.4- 58.5- 0.0 0.3---- 0.0------------
2015-06-06 19.5 28.4 6.3- 57.0- 0.0 0.7---- 0.0------------
2015-06-07 22.4 31.0 10.3- 64.0- 0.3 0.3---- 0.0------------
2015-06-08 19.3 27.4 13.8- 63.3- 5.7 1.3---- 1.8------------
2015-06-09 17.2 23.0 12.3- 63.5- 2.0 3.3---- 0.0------------
2015-06-10 17.2 23.2 11.5- 67.0- 6.0 1.7---- 0.0------------
2015-06-11 18.7 24.2 11.7- 60.5- 3.7 0.0---- 0.0------------
2015-06-12 20.8 29.4 8.1- 60.8- 0.0 0.0---- 0.1------------
2015-06-13 24.9 33.0 14.2- 55.0- 0.7 0.7---- 0.0------------
131.5 ms

 

Źródłem pochodzenia danych jest Instytut Meteorologii i Gospodarki Wodnej – Państwowy Instytut Badawczy. Dane Instytutu Meteorologii i Gospodarki Wodnej – Państwowego Instytutu Badawczego zostały przetworzone.

Dane źródłowe można odnaleźć na stronie https://dane.imgw.pl